createdAt,value
2023-01-15T00:02:17.696Z,99121.81
2023-01-15T00:04:45.497Z,99107.72
2023-01-15T00:07:13.512Z,99116.28
2023-01-15T00:09:41.173Z,99095.09
2023-01-15T00:12:09.105Z,99099.38
2023-01-15T00:14:36.858Z,99103.84
2023-01-15T00:17:04.702Z,99109.84
2023-01-15T00:19:32.418Z,99088.56
2023-01-15T00:22:00.150Z,99103.75
2023-01-15T00:24:46.557Z,99092.75
2023-01-15T00:27:33.036Z,99079.38
2023-01-15T00:30:00.856Z,99074.97
2023-01-15T00:32:29.752Z,99062.50
2023-01-15T00:35:00.664Z,99072.75
2023-01-15T00:37:28.842Z,99057.03
2023-01-15T00:39:56.518Z,99040.97
2023-01-15T00:42:24.257Z,99055.72
2023-01-15T00:44:51.940Z,99040.66
2023-01-15T00:47:19.778Z,99035.31
2023-01-15T00:49:50.370Z,99032.50
2023-01-15T00:52:18.055Z,99048.56
2023-01-15T00:54:48.312Z,99018.41
2023-01-15T00:57:16.172Z,99044.06
2023-01-15T00:59:44.028Z,99034.13
2023-01-15T01:02:11.994Z,99029.84
2023-01-15T01:04:42.336Z,99030.94
2023-01-15T01:07:09.996Z,99015.81
2023-01-15T01:09:37.802Z,99015.75
2023-01-15T01:12:06.527Z,99023.97
2023-01-15T01:14:54.208Z,99012.00
2023-01-15T01:17:42.137Z,99001.13
2023-01-15T01:20:14.845Z,99022.78
2023-01-15T01:23:02.556Z,99024.06
2023-01-15T01:25:30.521Z,99020.56
2023-01-15T01:27:59.618Z,99004.09
2023-01-15T01:30:27.841Z,98998.44
2023-01-15T01:32:55.679Z,98992.31
2023-01-15T01:35:24.538Z,99003.66
2023-01-15T01:37:53.675Z,98998.31
2023-01-15T01:40:23.586Z,98990.41
2023-01-15T01:42:51.525Z,98991.72
2023-01-15T01:45:32.497Z,98993.81
2023-01-15T01:48:06.723Z,98999.28
2023-01-15T01:50:36.652Z,99001.13
2023-01-15T01:53:12.665Z,99003.66
2023-01-15T01:55:41.225Z,99008.28
2023-01-15T01:58:11.930Z,99007.31
2023-01-15T02:00:44.893Z,99018.97
2023-01-15T02:03:12.856Z,99003.03
2023-01-15T02:05:50.675Z,98981.44
2023-01-15T02:08:18.907Z,98990.50
2023-01-15T02:10:53.802Z,98969.97
2023-01-15T02:14:16.365Z,98958.53
2023-01-15T02:17:00.998Z,98955.22
2023-01-15T02:19:48.830Z,98962.41
2023-01-15T02:22:53.291Z,98961.66
2023-01-15T02:25:36.092Z,98962.63
2023-01-15T02:28:15.946Z,98951.06
2023-01-15T02:30:58.064Z,98922.53
2023-01-15T02:33:39.621Z,98951.06
2023-01-15T02:36:14.485Z,98942.09
2023-01-15T02:38:51.692Z,98941.13
2023-01-15T02:41:26.416Z,98927.78
2023-01-15T02:44:00.344Z,98912.50
2023-01-15T02:46:34.347Z,98941.25
2023-01-15T02:49:09.078Z,98933.31
2023-01-15T02:51:49.333Z,98918.13
2023-01-15T02:54:22.880Z,98911.34
2023-01-15T02:56:52.870Z,98915.78
2023-01-15T02:59:35.412Z,98905.53
2023-01-15T03:02:11.167Z,98915.25
2023-01-15T03:04:47.918Z,98915.13
2023-01-15T03:07:27.773Z,98922.94
2023-01-15T03:09:57.565Z,98915.91
2023-01-15T03:13:03.857Z,98911.41
2023-01-15T03:16:20.989Z,98931.94
2023-01-15T03:19:21.901Z,98930.13
2023-01-15T03:22:37.634Z,98932.56
2023-01-15T03:25:34.873Z,98936.19
2023-01-15T03:28:05.388Z,98955.03
2023-01-15T03:30:37.982Z,98954.91
2023-01-15T03:33:11.627Z,98951.38
2023-01-15T03:35:59.236Z,98961.94
2023-01-15T03:38:53.527Z,98976.94
2023-01-15T03:42:36.389Z,98989.34
2023-01-15T03:45:28.476Z,99003.75
2023-01-15T03:48:52.419Z,99004.94
2023-01-15T03:51:34.538Z,99009.13
2023-01-15T03:54:07.134Z,99017.94
2023-01-15T03:57:06.228Z,99034.06
2023-01-15T03:59:55.881Z,99022.03
2023-01-15T04:02:28.170Z,99035.56
2023-01-15T04:05:01.021Z,99052.81
2023-01-15T04:07:31.498Z,99044.56
2023-01-15T04:10:05.959Z,99028.50
2023-01-15T04:12:35.106Z,99034.88
2023-01-15T04:15:04.527Z,99025.34
2023-01-15T04:17:33.509Z,99045.25
2023-01-15T04:20:02.588Z,99051.16
2023-01-15T04:22:31.006Z,99052.50
2023-01-15T04:24:58.867Z,99053.25
2023-01-15T04:27:27.271Z,99043.16
2023-01-15T04:29:55.287Z,99066.84
2023-01-15T04:32:25.821Z,99075.91
2023-01-15T04:34:53.487Z,99079.72
2023-01-15T04:37:21.342Z,99079.81
2023-01-15T04:39:49.067Z,99080.97
2023-01-15T04:42:35.256Z,99065.13
2023-01-15T04:45:03.209Z,99075.91
2023-01-15T04:47:31.520Z,99056.69
2023-01-15T04:49:59.319Z,99081.22
2023-01-15T04:52:26.931Z,99093.72
2023-01-15T04:54:55.835Z,99086.94
2023-01-15T04:57:23.833Z,99099.50
2023-01-15T04:59:51.528Z,99087.28
2023-01-15T05:02:19.338Z,99114.34
2023-01-15T05:04:47.724Z,99123.47
2023-01-15T05:07:15.527Z,99122.03
2023-01-15T05:09:43.635Z,99144.22
2023-01-15T05:12:11.330Z,99142.41
2023-01-15T05:14:39.116Z,99144.59
2023-01-15T05:17:06.747Z,99149.31
2023-01-15T05:19:34.425Z,99154.91
2023-01-15T05:22:02.259Z,99148.06
2023-01-15T05:24:30.078Z,99163.19
2023-01-15T05:26:58.258Z,99167.91
2023-01-15T05:29:25.937Z,99147.84
2023-01-15T05:31:53.772Z,99154.19
2023-01-15T05:34:21.394Z,99132.84
2023-01-15T05:36:49.431Z,99137.84
2023-01-15T05:39:17.061Z,99154.84
2023-01-15T05:41:51.050Z,99153.28
2023-01-15T05:44:30.311Z,99170.47
2023-01-15T05:47:02.923Z,99173.03
2023-01-15T05:49:31.395Z,99177.66
2023-01-15T05:52:01.047Z,99179.63
2023-01-15T05:54:32.894Z,99172.91
2023-01-15T05:57:02.026Z,99164.28
2023-01-15T05:59:31.533Z,99170.44
2023-01-15T06:01:59.647Z,99171.38
2023-01-15T06:04:27.628Z,99172.41
2023-01-15T06:06:56.662Z,99178.19
2023-01-15T06:09:27.842Z,99183.66
2023-01-15T06:11:56.471Z,99182.59
2023-01-15T06:14:24.660Z,99207.47
2023-01-15T06:16:52.446Z,99218.22
2023-01-15T06:19:20.427Z,99216.56
2023-01-15T06:21:49.149Z,99222.22
2023-01-15T06:24:20.782Z,99234.03
2023-01-15T06:26:48.447Z,99236.09
2023-01-15T06:29:18.774Z,99243.50
2023-01-15T06:31:47.886Z,99239.97
2023-01-15T06:34:15.783Z,99247.09
2023-01-15T06:36:50.863Z,99252.84
2023-01-15T06:39:18.657Z,99249.88
2023-01-15T06:42:05.288Z,99265.66
2023-01-15T06:44:51.759Z,99285.22
2023-01-15T06:47:22.239Z,99260.16
2023-01-15T06:49:52.995Z,99273.22
2023-01-15T06:52:21.517Z,99276.88
2023-01-15T06:54:50.578Z,99288.47
2023-01-15T06:57:19.269Z,99298.16
2023-01-15T06:59:49.160Z,99306.97
2023-01-15T07:02:18.345Z,99311.44
2023-01-15T07:04:49.157Z,99317.09
2023-01-15T07:07:19.852Z,99336.94
2023-01-15T07:09:49.272Z,99341.41
2023-01-15T07:12:18.716Z,99338.91
2023-01-15T07:15:08.403Z,99348.69
2023-01-15T07:17:57.383Z,99342.34
2023-01-15T07:20:25.503Z,99346.81
2023-01-15T07:22:53.350Z,99360.19
2023-01-15T07:25:22.694Z,99369.72
2023-01-15T07:27:51.454Z,99382.88
2023-01-15T07:30:19.450Z,99374.91
2023-01-15T07:32:48.699Z,99376.84
2023-01-15T07:35:18.634Z,99367.84
2023-01-15T07:37:52.565Z,99362.69
2023-01-15T07:40:20.488Z,99373.47
2023-01-15T07:43:07.247Z,99370.28
2023-01-15T07:46:02.127Z,99374.88
2023-01-15T07:48:50.016Z,99384.03
2023-01-15T07:51:19.348Z,99401.94
2023-01-15T07:53:50.479Z,99408.06
2023-01-15T07:56:21.206Z,99419.69
2023-01-15T07:58:51.208Z,99428.53
2023-01-15T08:01:22.411Z,99431.50
2023-01-15T08:03:50.705Z,99443.16
2023-01-15T08:06:18.586Z,99444.16
2023-01-15T08:08:46.863Z,99438.28
2023-01-15T08:11:33.630Z,99438.06
2023-01-15T08:14:20.235Z,99446.94
2023-01-15T08:16:48.499Z,99449.59
2023-01-15T08:19:16.333Z,99454.06
2023-01-15T08:21:45.729Z,99446.09
2023-01-15T08:24:15.621Z,99451.41
2023-01-15T08:26:43.536Z,99468.22
2023-01-15T08:29:11.622Z,99469.16
2023-01-15T08:31:44.035Z,99462.25
2023-01-15T08:34:12.493Z,99486.13
2023-01-15T08:36:40.580Z,99479.16
2023-01-15T08:39:08.841Z,99481.09
2023-01-15T08:41:36.932Z,99499.78
2023-01-15T08:44:05.626Z,99485.94
2023-01-15T08:46:33.747Z,99489.53
2023-01-15T08:49:01.988Z,99494.03
2023-01-15T08:51:31.061Z,99487.84
2023-01-15T08:53:59.330Z,99479.59
2023-01-15T08:56:27.769Z,99493.47
2023-01-15T08:58:56.661Z,99511.84
2023-01-15T09:01:25.844Z,99504.94
2023-01-15T09:03:54.067Z,99507.53
2023-01-15T09:06:22.709Z,99520.75
2023-01-15T09:08:52.734Z,99516.34
2023-01-15T09:11:21.202Z,99524.53
2023-01-15T09:13:51.674Z,99528.31
2023-01-15T09:16:19.685Z,99541.59
2023-01-15T09:18:48.544Z,99539.84
2023-01-15T09:21:16.930Z,99545.16
2023-01-15T09:23:45.045Z,99558.50
2023-01-15T09:26:38.457Z,99554.34
2023-01-15T09:29:09.392Z,99566.97
2023-01-15T09:31:38.954Z,99567.25
2023-01-15T09:34:06.964Z,99574.41
2023-01-15T09:36:36.321Z,99591.09
2023-01-15T09:39:07.653Z,99584.09
2023-01-15T09:42:26.305Z,99601.31
2023-01-15T09:45:30.704Z,99610.63
2023-01-15T09:48:12.001Z,99602.69
2023-01-15T09:50:59.920Z,99609.69
2023-01-15T09:53:39.891Z,99618.59
2023-01-15T09:56:21.733Z,99622.03
2023-01-15T09:58:54.067Z,99638.03
2023-01-15T10:01:33.772Z,99650.19
2023-01-15T10:04:13.765Z,99647.84
2023-01-15T10:06:51.015Z,99649.63
2023-01-15T10:09:31.688Z,99654.19
2023-01-15T10:12:40.283Z,99662.22
2023-01-15T10:15:37.134Z,99679.00
2023-01-15T10:18:10.123Z,99664.28
2023-01-15T10:21:14.181Z,99681.81
2023-01-15T10:24:15.588Z,99681.06
2023-01-15T10:26:58.656Z,99680.38
2023-01-15T10:29:51.815Z,99691.78
2023-01-15T10:32:39.427Z,99689.13
2023-01-15T10:35:34.731Z,99695.19
2023-01-15T10:38:22.691Z,99679.44
2023-01-15T10:41:12.518Z,99674.22
2023-01-15T10:43:59.606Z,99680.38
2023-01-15T10:46:33.675Z,99672.59
2023-01-15T10:49:11.511Z,99671.94
2023-01-15T10:51:54.080Z,99680.84
2023-01-15T10:54:45.949Z,99688.84
2023-01-15T10:57:41.900Z,99698.66
2023-01-15T11:00:12.852Z,99689.16
2023-01-15T11:02:51.083Z,99687.97
2023-01-15T11:05:23.453Z,99682.81
2023-01-15T11:08:24.706Z,99669.91
2023-01-15T11:10:42.331Z,99688.97
2023-01-15T11:13:42.436Z,99686.19
2023-01-15T11:16:30.644Z,99677.34
2023-01-15T11:19:23.419Z,99672.19
2023-01-15T11:21:53.911Z,99653.63
2023-01-15T11:24:22.333Z,99659.81
2023-01-15T11:26:54.873Z,99650.13
2023-01-15T11:29:34.881Z,99677.50
2023-01-15T11:32:04.569Z,99675.06
2023-01-15T11:34:32.600Z,99676.81
2023-01-15T11:37:06.004Z,99676.16
2023-01-15T11:39:34.831Z,99680.69
2023-01-15T11:42:25.222Z,99701.06
2023-01-15T11:45:15.471Z,99696.91
2023-01-15T11:48:15.287Z,99692.53
2023-01-15T11:51:14.779Z,99692.09
2023-01-15T11:54:06.222Z,99678.78
2023-01-15T11:56:36.630Z,99694.81
2023-01-15T11:59:14.769Z,99705.38
2023-01-15T12:01:59.565Z,99700.00
2023-01-15T12:04:36.015Z,99695.69
2023-01-15T12:07:07.270Z,99682.53
2023-01-15T12:10:03.197Z,99698.19
2023-01-15T12:13:08.978Z,99695.69
2023-01-15T12:16:21.861Z,99690.38
2023-01-15T12:19:02.653Z,99685.19
2023-01-15T12:22:05.886Z,99692.91
2023-01-15T12:24:58.285Z,99682.28
2023-01-15T12:27:43.184Z,99682.47
2023-01-15T12:30:48.568Z,99678.78
2023-01-15T12:33:45.631Z,99673.66
2023-01-15T12:36:24.049Z,99677.91
2023-01-15T12:39:14.481Z,99685.88
2023-01-15T12:42:09.342Z,99680.75
2023-01-15T12:45:05.008Z,99689.56
2023-01-15T12:48:16.806Z,99687.84
2023-01-15T12:50:52.832Z,99692.34
2023-01-15T12:53:47.024Z,99680.66
2023-01-15T12:56:47.624Z,99684.16
2023-01-15T12:59:42.201Z,99683.28
2023-01-15T13:02:52.251Z,99688.44
2023-01-15T13:05:42.355Z,99690.00
2023-01-15T13:08:30.981Z,99695.19
2023-01-15T13:11:00.424Z,99693.34
2023-01-15T13:13:58.275Z,99692.34
2023-01-15T13:16:59.193Z,99698.22
2023-01-15T13:20:27.109Z,99692.75
2023-01-15T13:23:07.382Z,99699.84
2023-01-15T13:26:14.735Z,99701.50
2023-01-15T13:29:34.920Z,99712.13
2023-01-15T13:32:09.935Z,99725.50
2023-01-15T13:34:48.488Z,99707.81
2023-01-15T13:37:24.517Z,99708.53
2023-01-15T13:40:27.349Z,99716.44
2023-01-15T13:42:57.191Z,99712.28
2023-01-15T13:45:43.857Z,99718.47
2023-01-15T13:48:31.568Z,99717.59
2023-01-15T13:51:03.022Z,99712.38
2023-01-15T13:53:48.855Z,99710.50
2023-01-15T13:56:29.994Z,99720.19
2023-01-15T13:59:06.516Z,99728.47
2023-01-15T14:01:40.538Z,99738.72
2023-01-15T14:04:14.616Z,99746.53
2023-01-15T14:06:53.015Z,99736.78
2023-01-15T14:09:25.539Z,99736.59
2023-01-15T14:12:25.295Z,99741.97
2023-01-15T14:15:20.407Z,99745.56
2023-01-15T14:18:14.614Z,99744.88
2023-01-15T14:21:07.721Z,99757.91
2023-01-15T14:24:13.047Z,99763.09
2023-01-15T14:26:59.934Z,99763.84
2023-01-15T14:29:49.335Z,99754.81
2023-01-15T14:33:15.308Z,99761.94
2023-01-15T14:35:48.302Z,99760.13
2023-01-15T14:38:20.533Z,99775.94
2023-01-15T14:41:07.043Z,99772.47
2023-01-15T14:43:41.494Z,99783.34
2023-01-15T14:46:38.309Z,99772.78
2023-01-15T14:49:26.031Z,99793.34
2023-01-15T14:51:54.274Z,99789.00
2023-01-15T14:54:25.088Z,99776.81
2023-01-15T14:57:01.417Z,99777.41
2023-01-15T14:59:53.932Z,99777.34
2023-01-15T15:02:31.890Z,99784.56
2023-01-15T15:05:03.148Z,99784.63
2023-01-15T15:07:41.740Z,99787.34
2023-01-15T15:10:17.563Z,99784.81
2023-01-15T15:12:58.389Z,99776.06
2023-01-15T15:15:26.338Z,99776.28
2023-01-15T15:18:13.682Z,99770.59
2023-01-15T15:21:04.711Z,99760.88
2023-01-15T15:24:03.894Z,99756.44
2023-01-15T15:26:36.066Z,99757.16
2023-01-15T15:29:14.778Z,99751.81
2023-01-15T15:31:56.399Z,99746.50
2023-01-15T15:34:40.937Z,99744.03
2023-01-15T15:37:24.457Z,99751.81
2023-01-15T15:40:04.980Z,99735.94
2023-01-15T15:42:56.343Z,99748.09
2023-01-15T15:45:47.936Z,99739.44
2023-01-15T15:48:42.316Z,99724.78
2023-01-15T15:51:36.710Z,99738.72
2023-01-15T15:54:21.956Z,99744.03
2023-01-15T15:57:01.579Z,99717.78
2023-01-15T15:59:39.008Z,99720.25
2023-01-15T16:02:41.786Z,99736.06
2023-01-15T16:05:23.784Z,99730.94
2023-01-15T16:07:55.191Z,99723.09
2023-01-15T16:10:34.641Z,99725.63
2023-01-15T16:13:11.128Z,99722.84
2023-01-15T16:15:43.066Z,99729.75
2023-01-15T16:18:28.012Z,99718.16
2023-01-15T16:20:58.273Z,99711.25
2023-01-15T16:23:32.229Z,99721.53
2023-01-15T16:26:20.004Z,99716.19
2023-01-15T16:29:18.445Z,99712.84
2023-01-15T16:31:48.847Z,99722.38
2023-01-15T16:34:29.783Z,99699.84
2023-01-15T16:37:01.665Z,99716.22
2023-01-15T16:39:46.619Z,99715.34
2023-01-15T16:42:30.190Z,99713.47
2023-01-15T16:45:03.217Z,99700.38
2023-01-15T16:47:36.380Z,99707.38
2023-01-15T16:50:22.903Z,99710.94
2023-01-15T16:52:53.893Z,99699.63
2023-01-15T16:55:43.680Z,99705.88
2023-01-15T16:58:19.767Z,99707.06
2023-01-15T17:00:55.841Z,99695.50
2023-01-15T17:03:28.269Z,99700.75
2023-01-15T17:06:11.984Z,99685.09
2023-01-15T17:08:48.457Z,99699.03
2023-01-15T17:11:30.188Z,99686.81
2023-01-15T17:14:24.201Z,99686.00
2023-01-15T17:17:23.046Z,99690.56
2023-01-15T17:19:52.903Z,99673.09
2023-01-15T17:22:29.301Z,99668.66
2023-01-15T17:25:00.684Z,99666.13
2023-01-15T17:27:30.912Z,99657.63
2023-01-15T17:29:59.146Z,99668.84
2023-01-15T17:32:40.289Z,99661.13
2023-01-15T17:35:49.765Z,99666.50
2023-01-15T17:38:18.967Z,99674.56
2023-01-15T17:40:47.247Z,99645.56
2023-01-15T17:43:16.595Z,99670.06
2023-01-15T17:45:44.838Z,99664.81
2023-01-15T17:48:13.757Z,99656.94
2023-01-15T17:50:41.953Z,99664.94
2023-01-15T17:53:09.923Z,99657.69
2023-01-15T17:55:56.473Z,99660.38
2023-01-15T17:58:43.233Z,99655.16
2023-01-15T18:01:38.991Z,99650.63
2023-01-15T18:05:03.130Z,99655.25
2023-01-15T18:07:39.592Z,99653.66
2023-01-15T18:10:17.651Z,99644.22
2023-01-15T18:12:45.611Z,99644.81
2023-01-15T18:15:13.838Z,99641.31
2023-01-15T18:17:43.248Z,99627.19
2023-01-15T18:20:13.298Z,99637.88
2023-01-15T18:22:41.112Z,99651.81
2023-01-15T18:25:15.580Z,99636.84
2023-01-15T18:27:44.013Z,99634.47
2023-01-15T18:30:16.184Z,99635.06
2023-01-15T18:32:46.289Z,99632.56
2023-01-15T18:35:15.175Z,99622.06
2023-01-15T18:37:43.893Z,99611.34
2023-01-15T18:40:16.082Z,99606.13
2023-01-15T18:43:03.319Z,99597.59
2023-01-15T18:45:50.323Z,99597.34
2023-01-15T18:48:19.242Z,99598.47
2023-01-15T18:50:48.867Z,99583.34
2023-01-15T18:53:17.974Z,99586.06
2023-01-15T18:55:47.508Z,99583.28
2023-01-15T18:58:15.489Z,99583.47
2023-01-15T19:00:45.438Z,99579.22
2023-01-15T19:03:15.255Z,99587.75
2023-01-15T19:05:42.991Z,99573.06
2023-01-15T19:08:13.183Z,99602.75
2023-01-15T19:10:42.502Z,99580.00
2023-01-15T19:13:13.630Z,99587.97
2023-01-15T19:16:04.439Z,99597.66
2023-01-15T19:18:43.377Z,99584.41
2023-01-15T19:21:31.124Z,99579.31
2023-01-15T19:24:18.950Z,99574.94
2023-01-15T19:27:09.137Z,99573.16
2023-01-15T19:30:00.436Z,99573.16
2023-01-15T19:32:48.924Z,99575.03
2023-01-15T19:35:26.332Z,99563.41
2023-01-15T19:37:56.540Z,99558.75
2023-01-15T19:40:45.776Z,99550.81
2023-01-15T19:44:12.327Z,99544.81
2023-01-15T19:47:00.905Z,99560.72
2023-01-15T19:49:54.136Z,99550.22
2023-01-15T19:52:35.322Z,99560.75
2023-01-15T19:55:10.869Z,99558.97
2023-01-15T19:58:05.635Z,99550.13
2023-01-15T20:00:39.527Z,99553.50
2023-01-15T20:03:12.306Z,99561.34
2023-01-15T20:05:43.402Z,99551.47
2023-01-15T20:08:17.341Z,99547.03
2023-01-15T20:10:51.015Z,99539.25
2023-01-15T20:13:42.561Z,99547.97
2023-01-15T20:16:20.473Z,99542.00
2023-01-15T20:18:49.883Z,99537.66
2023-01-15T20:21:18.540Z,99529.88
2023-01-15T20:23:46.507Z,99518.53
2023-01-15T20:26:15.216Z,99522.78
2023-01-15T20:28:45.639Z,99517.56
2023-01-15T20:31:18.825Z,99522.97
2023-01-15T20:33:48.428Z,99525.59
2023-01-15T20:36:16.065Z,99513.41
2023-01-15T20:38:44.972Z,99501.06
2023-01-15T20:41:31.468Z,99491.13
2023-01-15T20:44:17.940Z,99490.22
2023-01-15T20:46:45.618Z,99487.59
2023-01-15T20:49:30.583Z,99482.25
2023-01-15T20:51:58.828Z,99478.09
2023-01-15T20:54:29.079Z,99488.41
2023-01-15T20:56:58.259Z,99487.53
2023-01-15T20:59:28.736Z,99476.97
2023-01-15T21:01:56.963Z,99482.09
2023-01-15T21:04:25.033Z,99487.47
2023-01-15T21:06:53.771Z,99490.13
2023-01-15T21:09:21.914Z,99481.19
2023-01-15T21:11:49.609Z,99479.44
2023-01-15T21:14:17.254Z,99476.88
2023-01-15T21:16:45.365Z,99473.44
2023-01-15T21:19:13.100Z,99461.91
2023-01-15T21:21:41.864Z,99452.22
2023-01-15T21:24:10.258Z,99457.25
2023-01-15T21:26:37.973Z,99452.72
2023-01-15T21:29:05.721Z,99451.63
2023-01-15T21:31:33.474Z,99450.72
2023-01-15T21:34:01.268Z,99440.91
2023-01-15T21:36:29.331Z,99443.44
2023-01-15T21:38:58.765Z,99445.91
2023-01-15T21:41:45.675Z,99437.06
2023-01-15T21:44:32.495Z,99435.09
2023-01-15T21:47:06.661Z,99419.03
2023-01-15T21:49:34.929Z,99414.59
2023-01-15T21:52:08.755Z,99417.22
2023-01-15T21:54:36.500Z,99411.25
2023-01-15T21:57:04.556Z,99415.72
2023-01-15T21:59:32.482Z,99409.47
2023-01-15T22:02:01.403Z,99405.84
2023-01-15T22:04:34.002Z,99400.63
2023-01-15T22:07:02.118Z,99400.47
2023-01-15T22:09:30.006Z,99401.28
2023-01-15T22:12:00.519Z,99388.00
2023-01-15T22:14:31.261Z,99391.53
2023-01-15T22:17:02.858Z,99388.78
2023-01-15T22:19:32.006Z,99392.19
2023-01-15T22:22:08.539Z,99381.41
2023-01-15T22:24:39.331Z,99376.91
2023-01-15T22:27:12.053Z,99362.06
2023-01-15T22:29:41.438Z,99362.81
2023-01-15T22:32:13.115Z,99363.38
2023-01-15T22:34:41.568Z,99352.97
2023-01-15T22:37:12.801Z,99339.63
2023-01-15T22:39:40.799Z,99350.69
2023-01-15T22:42:24.456Z,99335.41
2023-01-15T22:44:53.009Z,99340.22
2023-01-15T22:47:21.645Z,99341.81
2023-01-15T22:49:49.709Z,99335.56
2023-01-15T22:52:17.716Z,99337.16
2023-01-15T22:54:47.072Z,99331.91
2023-01-15T22:57:16.565Z,99329.13
2023-01-15T22:59:45.850Z,99326.59
2023-01-15T23:02:14.921Z,99316.78
2023-01-15T23:04:43.525Z,99327.19
2023-01-15T23:07:11.192Z,99311.31
2023-01-15T23:09:38.886Z,99311.13
2023-01-15T23:12:07.038Z,99298.69
2023-01-15T23:14:34.697Z,99299.72
2023-01-15T23:17:02.401Z,99293.41
2023-01-15T23:19:30.754Z,99285.38
2023-01-15T23:22:00.379Z,99279.34
2023-01-15T23:24:28.409Z,99266.31
2023-01-15T23:26:56.136Z,99272.25
2023-01-15T23:29:23.869Z,99278.50
2023-01-15T23:31:52.237Z,99259.41
2023-01-15T23:34:19.924Z,99262.91
2023-01-15T23:36:47.776Z,99259.63
2023-01-15T23:39:15.466Z,99254.63
2023-01-15T23:42:01.918Z,99262.69
2023-01-15T23:44:48.633Z,99250.78
2023-01-15T23:47:16.579Z,99259.34
2023-01-15T23:49:45.117Z,99247.00
2023-01-15T23:52:12.996Z,99247.72
2023-01-15T23:54:40.695Z,99236.38
2023-01-15T23:57:08.699Z,99229.38
2023-01-15T23:59:36.453Z,99225.09
